Sawpit, Colorado
Current Conditions -  °F | °C
As of 6:53 AM on Monday 24 Nov 2014 (Local Time) from KMTJ Reporting Station
Broken Clouds Broken Clouds  
Wind Chill: 24°   Ceiling: 6500
Heat Index: 24°   Visibility: 10mi
Dew Point: 13°   Wind: 0mph
Humidity: 62%   Direction: NA
Pressure: 30.15"   Gusts: NA
Location:  37.9189°N, 107.878°W
Report Text: KMTJ 241353Z AUTO 00000KT 10SM BKN065 M04/M11 A3015 RMK AO2 SLP226 T10441106
Loading
Personal Weather Stations






























Interactive Weather Map New forecast layout! Learn more

10-Day Weather Forecast

Advertisements
Track Severe Weather on mobile